Time;durP1;ratioP1;P1;durP2;ratioP2;P2;SDS_P1;SDS_P2;PMS_P1;PMS_P2;Temp;Humidity;BMP_temperature;BMP_pressure;BME280_temperature;BME280_humidity;BME280_pressure;Samples;Min_cycle;Max_cycle;Signal;HPM_P1;HPM_P2
2023/11/25 00:00:02;;;;;;;;;;;;;;;17.93;47.66;98866.41;4979004;28;1045;-59
2023/11/25 00:02:37;;;;;;;;;;;;;;;17.43;47.53;98865.06;4990195;28;949;-60
2023/11/25 00:05:03;;;;;;;;;;;;;;;17.21;46.63;98876.25;4982754;28;958;-59
2023/11/25 00:07:29;;;;;;;;;;;;;;;17.53;47.96;98860.34;4990707;28;1193;-59
2023/11/25 00:09:54;;;;;;;;;;;;;;;17.50;48.20;98852.75;4992265;28;1910;-59
2023/11/25 00:12:20;;;;;;;;;;;;;;;17.21;47.17;98846.03;4997466;28;1104;-59
2023/11/25 00:14:45;;;;;;;;;;;;;;;16.97;46.22;98838.28;4996923;28;1119;-59
2023/11/25 00:17:11;;;;;;;;;;;;;;;17.92;47.78;98831.81;4995900;28;948;-59
2023/11/25 00:19:37;;;;;;;;;;;;;;;17.30;47.69;98840.53;4997060;28;1135;-59
2023/11/25 00:22:02;;;;;;;;;;;;;;;17.09;46.37;98828.25;4985626;28;902;-59
2023/11/25 00:24:28;;;;;;;;;;;;;;;16.92;45.71;98829.06;4984165;28;1483;-59
2023/11/25 00:26:53;;;;;;;;;;;;;;;17.97;47.41;98830.81;4991168;28;1203;-58
2023/11/25 00:29:19;;;;;;;;;;;;;;;17.23;47.59;98825.31;4982066;28;1957;-59
2023/11/25 00:31:47;;;;;;;;;;;;;;;17.10;46.83;98818.88;4985276;28;1127;-59
2023/11/25 00:34:13;;;;;;;;;;;;;;;17.89;47.89;98826.13;4984335;28;1107;-59
2023/11/25 00:36:38;;;;;;;;;;;;;;;17.31;47.29;98818.22;4996609;28;1508;-59
2023/11/25 00:39:06;;;;;;;;;;;;;;;17.01;46.52;98820.03;4995530;28;1296;-59
2023/11/25 00:41:35;;;;;;;;;;;;;;;16.86;46.36;98824.06;4995956;28;1214;-59
2023/11/25 00:44:00;;;;;;;;;;;;;;;17.86;47.64;98819.34;4996845;28;1032;-59
2023/11/25 00:46:26;;;;;;;;;;;;;;;17.29;47.54;98801.25;4990107;28;1211;-59
2023/11/25 00:48:52;;;;;;;;;;;;;;;17.40;47.78;98805.28;4990868;28;1967;-59
2023/11/25 00:51:18;;;;;;;;;;;;;;;17.70;47.88;98802.59;4978071;28;1046;-59
2023/11/25 00:53:44;;;;;;;;;;;;;;;17.22;47.40;98798.19;4995218;28;964;-59
2023/11/25 00:56:10;;;;;;;;;;;;;;;18.32;47.75;98797.63;4992731;28;956;-59
2023/11/25 00:58:36;;;;;;;;;;;;;;;17.52;48.17;98785.34;4980546;28;1503;-59
2023/11/25 01:01:04;;;;;;;;;;;;;;;17.29;47.43;98806.72;4985861;28;1064;-58
2023/11/25 01:03:30;;;;;;;;;;;;;;;18.33;48.08;98792.91;4995906;28;1047;-58
2023/11/25 01:05:56;;;;;;;;;;;;;;;17.54;47.88;98793.25;4977066;28;1132;-58
2023/11/25 01:08:25;;;;;;;;;;;;;;;17.39;46.54;98797.34;4978980;28;1981;-58
2023/11/25 01:10:51;;;;;;;;;;;;;;;17.57;47.35;98803.59;4995966;28;1111;-58
2023/11/25 01:13:17;;;;;;;;;;;;;;;17.87;48.22;98800.91;4982216;28;1136;-58
2023/11/25 01:15:42;;;;;;;;;;;;;;;17.38;47.21;98799.28;4978898;28;1195;-58
2023/11/25 01:18:09;;;;;;;;;;;;;;;17.15;46.48;98803.38;4994687;28;1134;-58
2023/11/25 01:20:35;;;;;;;;;;;;;;;17.97;47.68;98784.06;4986140;28;1284;-58
2023/11/25 01:23:00;;;;;;;;;;;;;;;17.31;47.75;98796.25;4996791;28;1213;-58
2023/11/25 01:25:26;;;;;;;;;;;;;;;17.39;46.99;98798.16;4995503;28;1409;-58
2023/11/25 01:27:53;;;;;;;;;;;;;;;18.03;47.92;98790.97;4995074;28;1993;-58
2023/11/25 01:30:20;;;;;;;;;;;;;;;14.90;56.36;98793.78;4988109;28;1152;-58
2023/11/25 01:32:45;;;;;;;;;;;;;;;18.03;49.88;98796.47;4977088;28;1162;-59
2023/11/25 01:35:11;;;;;;;;;;;;;;;17.62;49.45;98800.69;4977055;28;1052;-58
2023/11/25 01:37:37;;;;;;;;;;;;;;;17.22;48.24;98800.94;5005424;28;1254;-58
2023/11/25 01:40:05;;;;;;;;;;;;;;;16.97;47.31;98789.69;4994849;28;1074;-58
2023/11/25 01:42:31;;;;;;;;;;;;;;;17.89;49.20;98788.47;4983954;28;1135;-58
2023/11/25 01:44:57;;;;;;;;;;;;;;;17.17;48.57;98776.41;4996695;28;1051;-58
2023/11/25 01:47:23;;;;;;;;;;;;;;;17.15;46.96;98776.72;4983760;28;1116;-58
2023/11/25 01:49:48;;;;;;;;;;;;;;;17.76;48.82;98767.47;4987238;28;1918;-58
2023/11/25 01:52:14;;;;;;;;;;;;;;;17.61;48.83;98760.59;4990280;28;1096;-59
2023/11/25 01:54:39;;;;;;;;;;;;;;;17.19;47.86;98760.41;4996035;28;975;-58
2023/11/25 01:57:05;;;;;;;;;;;;;;;17.81;48.72;98770.06;4993518;28;1071;-58
2023/11/25 01:59:31;;;;;;;;;;;;;;;17.90;48.84;98770.78;4985129;28;1155;-58
2023/11/25 02:01:57;;;;;;;;;;;;;;;17.45;47.72;98747.38;4983515;28;1055;-58
2023/11/25 02:04:22;;;;;;;;;;;;;;;17.24;46.75;98752.00;4989934;28;1682;-58
2023/11/25 02:06:49;;;;;;;;;;;;;;;17.04;46.31;98753.47;4995859;28;1091;-58
2023/11/25 02:09:15;;;;;;;;;;;;;;;18.06;48.39;98738.09;4995136;28;1971;-58
2023/11/25 02:12:13;;;;;;;;;;;;;;;17.43;48.19;98744.19;4993570;28;1071;-58
2023/11/25 02:14:39;;;;;;;;;;;;;;;17.23;47.11;98731.16;4975585;28;1217;-58
2023/11/25 02:17:04;;;;;;;;;;;;;;;18.04;48.22;98732.09;4985658;28;1036;-58
2023/11/25 02:19:31;;;;;;;;;;;;;;;17.33;48.00;98732.72;4986196;28;1532;-59
2023/11/25 02:21:57;;;;;;;;;;;;;;;17.19;46.88;98721.94;4991970;28;1119;-59
2023/11/25 02:24:26;;;;;;;;;;;;;;;17.47;48.00;98724.28;4981219;28;1196;-59
2023/11/25 02:26:57;;;;;;;;;;;;;;;17.92;48.06;98710.00;4999898;28;1072;-58
2023/11/25 02:29:23;;;;;;;;;;;;;;;17.28;47.53;98703.50;4992883;28;1982;-59
2023/11/25 02:31:49;;;;;;;;;;;;;;;17.06;46.48;98705.34;4995684;28;1222;-58
2023/11/25 02:34:15;;;;;;;;;;;;;;;17.76;47.95;98696.00;4983315;28;1150;-58
2023/11/25 02:36:41;;;;;;;;;;;;;;;17.46;47.93;98698.75;4999573;28;1143;-59
2023/11/25 02:39:07;;;;;;;;;;;;;;;17.12;47.17;98699.69;4986896;28;1112;-58
2023/11/25 02:41:32;;;;;;;;;;;;;;;17.09;45.84;98690.16;4988328;28;1238;-58
2023/11/25 02:43:58;;;;;;;;;;;;;;;17.92;47.61;98690.75;5011227;28;1566;-58
2023/11/25 02:46:24;;;;;;;;;;;;;;;17.53;47.87;98685.31;4998180;28;1255;-58
2023/11/25 02:48:50;;;;;;;;;;;;;;;17.28;46.80;98676.03;4999247;28;1906;-59
2023/11/25 02:51:16;;;;;;;;;;;;;;;17.31;47.04;98675.38;4992254;28;1184;-58
2023/11/25 02:53:41;;;;;;;;;;;;;;;17.64;47.98;98677.47;4983541;28;1061;-59
2023/11/25 02:56:07;;;;;;;;;;;;;;;17.16;47.10;98679.47;4991937;28;1214;-58
2023/11/25 02:58:32;;;;;;;;;;;;;;;17.03;46.35;98675.00;4979484;28;1334;-59
2023/11/25 03:01:01;;;;;;;;;;;;;;;17.89;47.89;98677.66;4999445;28;1064;-59
2023/11/25 03:03:27;;;;;;;;;;;;;;;17.41;47.90;98677.75;4985654;28;1043;-59
2023/11/25 03:05:53;;;;;;;;;;;;;;;17.39;47.74;98669.03;4991933;28;881;-59
2023/11/25 03:08:18;;;;;;;;;;;;;;;18.12;47.74;98654.22;4985885;28;1976;-59
2023/11/25 03:10:47;;;;;;;;;;;;;;;17.50;47.29;98649.41;4998894;28;1246;-58
2023/11/25 03:13:13;;;;;;;;;;;;;;;17.15;46.49;98655.88;4985991;28;1047;-58
2023/11/25 03:15:38;;;;;;;;;;;;;;;16.98;45.83;98658.69;4999322;28;1052;-59
2023/11/25 03:18:07;;;;;;;;;;;;;;;18.20;47.66;98651.72;4996476;28;1231;-59
2023/11/25 03:20:33;;;;;;;;;;;;;;;17.48;47.70;98643.47;4987778;28;1151;-59
2023/11/25 03:22:59;;;;;;;;;;;;;;;17.52;48.04;98663.66;4984409;28;1274;-58
2023/11/25 03:25:27;;;;;;;;;;;;;;;17.97;47.84;98659.53;4979648;28;1024;-58
2023/11/25 03:27:53;;;;;;;;;;;;;;;17.38;47.36;98664.66;4991282;28;1942;-58
2023/11/25 03:30:18;;;;;;;;;;;;;;;17.94;48.17;98655.50;4992731;28;950;-59
2023/11/25 03:32:44;;;;;;;;;;;;;;;17.83;47.87;98641.31;4984092;28;1144;-59
2023/11/25 03:35:09;;;;;;;;;;;;;;;17.40;47.01;98640.44;4987738;28;1215;-59
2023/11/25 03:37:35;;;;;;;;;;;;;;;17.19;46.29;98640.34;4998546;28;1075;-59
2023/11/25 03:40:00;;;;;;;;;;;;;;;17.10;45.35;98645.88;4998546;28;1081;-58
2023/11/25 03:42:27;;;;;;;;;;;;;;;17.36;46.53;98638.66;4997970;28;1106;-59
2023/11/25 03:44:52;;;;;;;;;;;;;;;17.78;47.73;98645.06;4990565;28;1152;-59
2023/11/25 03:47:18;;;;;;;;;;;;;;;17.32;47.08;98644.03;4987019;28;1331;-59
2023/11/25 03:49:44;;;;;;;;;;;;;;;17.28;46.81;98637.59;4961206;28;1983;-60
2023/11/25 03:52:10;;;;;;;;;;;;;;;17.85;47.76;98629.97;4976722;28;1120;-61
2023/11/25 03:54:37;;;;;;;;;;;;;;;17.40;47.14;98634.94;4991536;28;839;-61
2023/11/25 03:57:03;;;;;;;;;;;;;;;17.12;46.36;98636.53;4997529;28;1052;-61
2023/11/25 03:59:28;;;;;;;;;;;;;;;18.08;47.57;98627.72;5012079;28;886;-60
2023/11/25 04:01:53;;;;;;;;;;;;;;;17.61;47.75;98621.25;4995404;28;1131;-58
2023/11/25 04:04:19;;;;;;;;;;;;;;;17.31;46.51;98620.44;4982773;28;1376;-58
2023/11/25 04:06:46;;;;;;;;;;;;;;;17.63;47.54;98631.91;4984207;28;1131;-58
2023/11/25 04:09:13;;;;;;;;;;;;;;;17.79;47.81;98634.84;4982759;28;1985;-58
2023/11/25 04:11:42;;;;;;;;;;;;;;;17.40;47.00;98634.13;4980110;28;2010;-58
2023/11/25 04:14:08;;;;;;;;;;;;;;;17.74;47.70;98640.53;4996061;28;1290;-59
2023/11/25 04:16:33;;;;;;;;;;;;;;;17.73;47.90;98637.00;4995692;28;1275;-58
2023/11/25 04:19:02;;;;;;;;;;;;;;;17.28;46.90;98641.13;4994097;28;1334;-58
2023/11/25 04:21:27;;;;;;;;;;;;;;;17.16;46.20;98635.53;4994870;28;1340;-58
2023/11/25 04:23:55;;;;;;;;;;;;;;;18.01;47.71;98632.97;4987682;28;1385;-58
2023/11/25 04:26:21;;;;;;;;;;;;;;;17.55;47.42;98635.50;4993553;28;1294;-58
2023/11/25 04:28:47;;;;;;;;;;;;;;;17.25;46.61;98640.97;4974312;28;1894;-58
2023/11/25 04:31:13;;;;;;;;;;;;;;;16.96;45.97;98628.81;4994957;28;845;-58
2023/11/25 04:33:39;;;;;;;;;;;;;;;17.95;47.14;98616.66;4977771;28;1077;-61
2023/11/25 04:36:05;;;;;;;;;;;;;;;17.59;47.60;98623.50;4977877;28;1057;-59
2023/11/25 04:38:30;;;;;;;;;;;;;;;17.29;46.60;98617.19;4971625;28;1106;-61
2023/11/25 04:40:56;;;;;;;;;;;;;;;17.07;45.92;98613.59;4983505;28;1958;-65
2023/11/25 04:43:21;;;;;;;;;;;;;;;17.48;46.88;98605.00;4995679;28;866;-63
2023/11/25 04:45:48;;;;;;;;;;;;;;;17.74;47.56;98610.31;4994232;28;1130;-61
2023/11/25 04:48:13;;;;;;;;;;;;;;;17.27;47.00;98608.50;4965199;28;2752;-61
2023/11/25 04:50:39;;;;;;;;;;;;;;;17.21;47.09;98599.66;4969892;28;1128;-61
2023/11/25 04:53:05;;;;;;;;;;;;;;;17.92;47.43;98600.84;4976554;28;1282;-61
2023/11/25 04:55:31;;;;;;;;;;;;;;;17.44;47.48;98591.91;4989337;28;1112;-66
2023/11/25 04:57:57;;;;;;;;;;;;;;;17.21;46.32;98583.16;4989349;28;1021;-61
2023/11/25 05:00:22;;;;;;;;;;;;;;;17.78;47.31;98573.59;4990375;28;1097;-63
2023/11/25 05:02:48;;;;;;;;;;;;;;;17.77;47.70;98571.19;4984861;28;1065;-64
2023/11/25 05:05:13;;;;;;;;;;;;;;;17.33;47.22;98585.19;4996576;28;1015;-64
2023/11/25 05:07:39;;;;;;;;;;;;;;;17.10;45.95;98581.94;4996442;28;958;-65
2023/11/25 05:10:06;;;;;;;;;;;;;;;18.24;47.42;98581.16;4996695;28;1906;-65
2023/11/25 05:12:33;;;;;;;;;;;;;;;17.48;47.45;98567.34;4990705;28;2239;-65
2023/11/25 05:14:58;;;;;;;;;;;;;;;17.26;46.60;98562.94;4982767;28;1148;-62
2023/11/25 05:17:24;;;;;;;;;;;;;;;17.99;47.72;98534.28;4977400;28;1009;-62
2023/11/25 05:19:50;;;;;;;;;;;;;;;17.54;47.40;98537.72;4989974;28;1081;-65
2023/11/25 05:22:15;;;;;;;;;;;;;;;17.30;46.84;98547.41;4984565;28;1048;-65
2023/11/25 05:24:41;;;;;;;;;;;;;;;18.21;47.44;98557.06;4994946;28;1008;-59
2023/11/25 05:27:06;;;;;;;;;;;;;;;17.50;47.36;98550.50;4966584;28;1055;-59
2023/11/25 05:29:32;;;;;;;;;;;;;;;18.04;46.75;98527.78;4978806;28;1989;-58
2023/11/25 05:31:57;;;;;;;;;;;;;;;17.69;47.29;98479.38;4972824;28;1267;-58
2023/11/25 05:34:24;;;;;;;;;;;;;;;17.35;48.22;98495.03;4972504;28;1044;-58
2023/11/25 05:36:49;;;;;;;;;;;;;;;17.08;48.84;98527.34;4962204;28;1424;-58
2023/11/25 05:39:20;;;;;;;;;;;;;;;16.88;49.40;98519.81;4960147;28;1091;-58
2023/11/25 05:41:46;;;;;;;;;;;;;;;16.76;49.75;98507.63;4961919;28;1230;-57
2023/11/25 05:44:12;;;;;;;;;;;;;;;16.64;50.09;98510.25;4970368;28;1107;-56
2023/11/25 05:46:37;;;;;;;;;;;;;;;16.49;50.34;98508.03;4976791;28;1136;-56
2023/11/25 05:49:12;;;;;;;;;;;;;;;17.07;49.44;98514.75;4995407;28;1918;-58
2023/11/25 05:51:45;;;;;;;;;;;;;;;17.30;48.57;98508.16;4995342;28;1254;-59
2023/11/25 05:54:13;;;;;;;;;;;;;;;16.84;49.83;98496.91;4992234;28;1329;-61
2023/11/25 05:56:40;;;;;;;;;;;;;;;17.09;49.44;98492.44;4991430;28;1370;-63
2023/11/25 05:59:08;;;;;;;;;;;;;;;17.51;48.08;98486.97;4994994;28;1206;-61
2023/11/25 06:01:34;;;;;;;;;;;;;;;16.88;49.77;98492.38;4995246;28;1408;-59
2023/11/25 06:04:00;;;;;;;;;;;;;;;16.69;50.22;98501.00;4994663;28;1107;-60
2023/11/25 06:06:25;;;;;;;;;;;;;;;17.14;49.46;98510.66;4988618;28;1282;-60
2023/11/25 06:08:51;;;;;;;;;;;;;;;17.32;48.90;98512.19;4992917;28;1992;-62
2023/11/25 06:11:23;;;;;;;;;;;;;;;16.83;49.86;98503.53;4990853;28;1403;-60
2023/11/25 06:13:48;;;;;;;;;;;;;;;16.58;50.41;98500.59;4996615;28;1188;-60
2023/11/25 06:16:14;;;;;;;;;;;;;;;17.74;48.00;98509.44;4987261;28;1294;-59
2023/11/25 06:18:40;;;;;;;;;;;;;;;17.03;49.77;98511.06;4993261;28;1184;-59
2023/11/25 06:21:05;;;;;;;;;;;;;;;16.72;50.31;98501.16;4985422;28;1445;-58
2023/11/25 06:23:32;;;;;;;;;;;;;;;16.76;50.47;98495.84;4991455;28;1186;-61
2023/11/25 06:25:57;;;;;;;;;;;;;;;17.65;48.06;98500.44;4983384;28;1345;-64
2023/11/25 06:28:24;;;;;;;;;;;;;;;16.92;49.93;98490.63;4990755;28;1993;-62
2023/11/25 06:30:53;;;;;;;;;;;;;;;16.63;50.73;98489.41;4983757;28;1384;-63
2023/11/25 06:33:25;;;;;;;;;;;;;;;17.52;48.73;98485.06;4975376;28;1314;-60
2023/11/25 06:35:50;;;;;;;;;;;;;;;17.23;49.10;98481.22;4993375;28;1179;-63
2023/11/25 06:38:16;;;;;;;;;;;;;;;16.80;50.23;98485.00;4980229;28;1076;-62
2023/11/25 06:40:42;;;;;;;;;;;;;;;16.61;50.66;98488.97;4999162;28;1081;-62
2023/11/25 06:43:07;;;;;;;;;;;;;;;17.61;48.55;98478.34;4995596;28;1425;-62
2023/11/25 06:45:34;;;;;;;;;;;;;;;17.05;49.62;98464.84;4985492;28;1116;-61
2023/11/25 06:48:00;;;;;;;;;;;;;;;16.69;50.75;98459.84;4987441;28;1976;-62
2023/11/25 06:50:25;;;;;;;;;;;;;;;17.08;49.93;98458.69;4999049;28;1035;-62
2023/11/25 06:52:51;;;;;;;;;;;;;;;17.50;48.59;98446.91;4999450;28;1123;-64
2023/11/25 06:55:20;;;;;;;;;;;;;;;16.90;50.29;98440.72;4985707;28;1200;-61
2023/11/25 06:57:46;;;;;;;;;;;;;;;17.00;50.16;98443.09;4989213;28;1120;-62
2023/11/25 07:00:11;;;;;;;;;;;;;;;17.59;48.50;98438.59;4979345;28;1187;-65
2023/11/25 07:02:39;;;;;;;;;;;;;;;16.95;50.25;98432.28;4982166;28;1032;-66
2023/11/25 07:05:05;;;;;;;;;;;;;;;16.68;50.97;98428.09;4979619;28;1148;-64
2023/11/25 07:07:30;;;;;;;;;;;;;;;17.64;48.65;98423.81;4991298;28;897;-63
2023/11/25 07:09:56;;;;;;;;;;;;;;;17.16;49.91;98428.75;4993199;28;1981;-67
2023/11/25 07:12:22;;;;;;;;;;;;;;;16.83;50.69;98423.94;4991675;28;1167;-65
2023/11/25 07:14:47;;;;;;;;;;;;;;;17.02;50.36;98421.59;4980554;28;1235;-62
2023/11/25 07:17:13;;;;;;;;;;;;;;;17.54;48.76;98419.56;4998410;28;1159;-66
2023/11/25 07:19:41;;;;;;;;;;;;;;;16.96;50.29;98420.19;4998289;28;1181;-66
2023/11/25 07:22:08;;;;;;;;;;;;;;;16.65;51.14;98421.31;4998761;28;1049;-66
2023/11/25 07:24:34;;;;;;;;;;;;;;;17.19;50.06;98419.84;4985857;28;1120;-69
2023/11/25 07:27:04;;;;;;;;;;;;;;;17.50;48.96;98413.13;4974062;28;947;-66
2023/11/25 07:29:33;;;;;;;;;;;;;;;16.88;50.51;98415.53;4985482;28;2225;-65
2023/11/25 07:32:00;;;;;;;;;;;;;;;16.95;50.85;98415.81;4991516;28;1093;-63
2023/11/25 07:34:31;;;;;;;;;;;;;;;17.38;49.19;98409.19;4970999;28;1118;-64
2023/11/25 07:36:56;;;;;;;;;;;;;;;16.85;50.60;98394.22;4979578;28;1045;-65
2023/11/25 07:39:23;;;;;;;;;;;;;;;16.73;50.93;98397.69;4987307;28;1198;-64
2023/11/25 07:41:53;;;;;;;;;;;;;;;17.56;48.98;98398.06;4991866;28;1137;-64
2023/11/25 07:44:23;;;;;;;;;;;;;;;16.86;50.60;98398.59;4979160;28;884;-65
2023/11/25 07:46:49;;;;;;;;;;;;;;;16.63;51.07;98385.16;4989300;28;1030;-65
2023/11/25 07:49:15;;;;;;;;;;;;;;;17.16;50.18;98384.81;4979206;28;1973;-62
2023/11/25 07:51:40;;;;;;;;;;;;;;;17.36;49.47;98374.94;4998041;28;1127;-62
2023/11/25 07:54:08;;;;;;;;;;;;;;;16.86;50.77;98351.94;4990108;28;1060;-63
2023/11/25 07:56:34;;;;;;;;;;;;;;;16.57;51.37;98351.63;4978733;28;885;-64
2023/11/25 07:58:59;;;;;;;;;;;;;;;17.53;49.18;98350.06;4988652;28;1041;-64
2023/11/25 08:01:26;;;;;;;;;;;;;;;17.23;50.00;98343.88;4998254;28;1063;-66
2023/11/25 08:03:52;;;;;;;;;;;;;;;16.76;50.91;98333.94;4992515;28;1047;-65
2023/11/25 08:06:18;;;;;;;;;;;;;;;16.97;50.96;98341.38;4987384;28;1123;-62
2023/11/25 08:08:45;;;;;;;;;;;;;;;17.69;48.84;98336.47;4993649;28;1899;-62
2023/11/25 08:11:11;;;;;;;;;;;;;;;16.96;50.35;98332.34;4997543;28;1133;-67
2023/11/25 08:13:37;;;;;;;;;;;;;;;16.68;51.26;98315.59;4996667;28;1012;-63
2023/11/25 08:16:04;;;;;;;;;;;;;;;17.42;49.65;98305.72;4987212;28;1098;-62
2023/11/25 08:18:30;;;;;;;;;;;;;;;17.26;49.82;98299.28;4987236;28;1032;-64
2023/11/25 08:20:56;;;;;;;;;;;;;;;16.82;51.09;98313.38;4990708;28;889;-66
2023/11/25 08:23:21;;;;;;;;;;;;;;;17.20;50.13;98297.88;4978465;28;1237;-63
2023/11/25 08:25:47;;;;;;;;;;;;;;;17.44;49.48;98284.19;4971787;28;1139;-64
2023/11/25 08:28:12;;;;;;;;;;;;;;;16.95;50.78;98284.06;4991992;28;1902;-65
2023/11/25 08:30:38;;;;;;;;;;;;;;;16.82;51.34;98282.38;4989391;28;1145;-66
2023/11/25 08:33:04;;;;;;;;;;;;;;;17.60;48.85;98291.81;4984381;28;1057;-64
2023/11/25 08:35:29;;;;;;;;;;;;;;;16.90;50.86;98298.78;4980324;28;1136;-64
2023/11/25 08:37:55;;;;;;;;;;;;;;;17.02;50.68;98295.28;4973377;28;1080;-68
2023/11/25 08:40:21;;;;;;;;;;;;;;;17.64;48.95;98275.44;4973694;28;1153;-67
2023/11/25 08:42:49;;;;;;;;;;;;;;;17.00;50.68;98277.53;4990377;28;1081;-66
2023/11/25 08:45:14;;;;;;;;;;;;;;;16.71;51.21;98280.03;4988792;28;912;-66
2023/11/25 08:47:41;;;;;;;;;;;;;;;17.72;49.21;98266.28;4984170;28;1137;-64
2023/11/25 08:50:09;;;;;;;;;;;;;;;17.15;50.13;98262.38;4995626;28;1918;-63
2023/11/25 08:52:38;;;;;;;;;;;;;;;16.82;50.91;98252.19;4989363;28;1047;-63
2023/11/25 08:55:09;;;;;;;;;;;;;;;17.85;48.93;98242.34;4982217;28;1196;-64
2023/11/25 08:57:36;;;;;;;;;;;;;;;17.18;50.14;98237.81;4987487;28;1062;-63
2023/11/25 09:00:06;;;;;;;;;;;;;;;16.82;51.03;98230.22;4986606;28;1204;-61
2023/11/25 09:02:32;;;;;;;;;;;;;;;17.67;49.25;98223.34;4988358;28;1084;-64
2023/11/25 09:04:58;;;;;;;;;;;;;;;17.27;49.89;98229.47;4978554;28;1512;-63
2023/11/25 09:07:23;;;;;;;;;;;;;;;16.87;50.95;98249.22;4973963;28;1152;-61
2023/11/25 09:09:49;;;;;;;;;;;;;;;17.47;49.82;98249.75;4979332;28;1971;-64
2023/11/25 09:12:16;;;;;;;;;;;;;;;17.30;50.05;98239.78;4989454;28;1097;-66
2023/11/25 09:14:43;;;;;;;;;;;;;;;16.86;51.09;98245.69;4977322;28;1021;-63
2023/11/25 09:17:11;;;;;;;;;;;;;;;16.65;51.53;98247.63;4984119;28;1378;-62
2023/11/25 09:19:36;;;;;;;;;;;;;;;17.71;49.17;98248.19;4979728;28;1292;-65
2023/11/25 09:22:03;;;;;;;;;;;;;;;17.15;50.59;98267.88;4990582;28;1089;-61
2023/11/25 09:24:29;;;;;;;;;;;;;;;16.76;51.27;98262.56;4981586;28;1429;-64
2023/11/25 09:26:55;;;;;;;;;;;;;;;17.64;49.51;98267.19;4985200;28;1049;-64
2023/11/25 09:29:20;;;;;;;;;;;;;;;17.22;50.33;98257.16;4981140;28;1961;-64
2023/11/25 09:31:46;;;;;;;;;;;;;;;16.85;51.25;98246.03;4976972;28;1531;-63
2023/11/25 09:34:12;;;;;;;;;;;;;;;17.47;50.06;98229.72;4977205;28;1144;-60
2023/11/25 09:36:37;;;;;;;;;;;;;;;17.24;50.44;98219.16;4985277;28;1149;-60
2023/11/25 09:39:03;;;;;;;;;;;;;;;16.81;51.30;98201.97;4981518;28;1293;-60
2023/11/25 09:41:30;;;;;;;;;;;;;;;17.10;50.84;98192.81;4984793;28;1083;-64
2023/11/25 09:43:57;;;;;;;;;;;;;;;17.41;49.83;98191.50;4993831;28;1017;-64
2023/11/25 09:46:22;;;;;;;;;;;;;;;16.92;50.94;98202.38;4984787;28;1204;-62
2023/11/25 09:48:48;;;;;;;;;;;;;;;17.23;50.62;98212.06;4982057;28;1910;-62
2023/11/25 09:51:15;;;;;;;;;;;;;;;17.45;49.78;98203.41;4976621;28;1215;-62
2023/11/25 09:53:40;;;;;;;;;;;;;;;16.87;51.21;98203.38;4993137;28;1028;-61
2023/11/25 09:56:06;;;;;;;;;;;;;;;16.70;51.58;98198.84;4978942;28;1137;-61
2023/11/25 09:58:32;;;;;;;;;;;;;;;16.51;51.92;98204.84;4976855;28;1096;-61
2023/11/25 10:00:57;;;;;;;;;;;;;;;17.79;49.00;98190.38;4981479;28;1152;-62
2023/11/25 10:03:23;;;;;;;;;;;;;;;17.03;50.74;98181.59;4984656;28;1266;-64
2023/11/25 10:05:48;;;;;;;;;;;;;;;16.65;51.64;98160.66;4983979;28;1549;-60
2023/11/25 10:08:14;;;;;;;;;;;;;;;17.10;51.11;98159.06;4964390;28;1898;-61
2023/11/25 10:10:39;;;;;;;;;;;;;;;17.47;49.90;98150.84;4977068;28;1073;-61
2023/11/25 10:13:12;;;;;;;;;;;;;;;16.88;51.18;98152.84;4983436;28;1053;-65
2023/11/25 10:15:47;;;;;;;;;;;;;;;16.67;51.72;98141.91;4984318;28;1080;-65
2023/11/25 10:18:13;;;;;;;;;;;;;;;17.75;49.13;98129.00;4990112;28;1069;-64
2023/11/25 10:20:42;;;;;;;;;;;;;;;16.98;50.93;98115.91;4991313;28;1219;-66
2023/11/25 10:23:08;;;;;;;;;;;;;;;16.70;51.70;98119.25;4982695;28;1125;-65
2023/11/25 10:25:34;;;;;;;;;;;;;;;17.77;49.21;98104.69;4992911;28;1159;-65
2023/11/25 10:28:00;;;;;;;;;;;;;;;17.10;50.93;98098.69;4982774;28;1902;-65
2023/11/25 10:30:25;;;;;;;;;;;;;;;16.73;51.67;98099.41;4994059;28;1148;-66
2023/11/25 10:32:54;;;;;;;;;;;;;;;17.55;50.11;98091.44;4980766;28;1111;-63
2023/11/25 10:35:20;;;;;;;;;;;;;;;17.21;50.43;98090.78;4984925;28;1185;-63
2023/11/25 10:37:46;;;;;;;;;;;;;;;16.78;51.42;98090.13;4993526;28;1036;-63
2023/11/25 10:40:16;;;;;;;;;;;;;;;17.94;48.83;98078.13;4979906;28;1228;-61
2023/11/25 10:42:45;;;;;;;;;;;;;;;17.23;50.52;98094.78;4979820;28;1167;-62
2023/11/25 10:45:15;;;;;;;;;;;;;;;16.83;51.53;98117.38;4994579;28;1011;-62
2023/11/25 10:47:40;;;;;;;;;;;;;;;17.28;50.79;98122.03;4993394;28;1179;-64
2023/11/25 10:50:07;;;;;;;;;;;;;;;17.27;50.63;98098.44;5000015;28;1983;-65
2023/11/25 10:52:35;;;;;;;;;;;;;;;16.81;51.59;98085.91;4979880;28;1093;-65
2023/11/25 10:55:01;;;;;;;;;;;;;;;16.68;52.06;98088.63;4986712;28;1262;-62
2023/11/25 10:57:27;;;;;;;;;;;;;;;17.64;49.87;98094.06;4980948;28;1093;-63
2023/11/25 10:59:55;;;;;;;;;;;;;;;16.92;51.45;98098.09;4985304;28;1128;-64
2023/11/25 11:02:44;;;;;;;;;;;;;;;16.81;51.87;98092.19;4987547;28;1033;-64
2023/11/25 11:05:10;;;;;;;;;;;;;;;17.60;49.92;98100.25;4990592;28;1323;-62
2023/11/25 11:07:37;;;;;;;;;;;;;;;16.92;51.33;98093.38;4988250;28;1098;-62
2023/11/25 11:10:02;;;;;;;;;;;;;;;16.85;51.84;98081.34;4980185;28;1987;-61
2023/11/25 11:12:28;;;;;;;;;;;;;;;17.54;49.95;98074.16;4992782;28;1152;-62
2023/11/25 11:14:58;;;;;;;;;;;;;;;16.95;51.29;98069.16;5000995;28;1087;-63
2023/11/25 11:17:28;;;;;;;;;;;;;;;16.65;52.02;98067.38;4991279;28;1065;-63
2023/11/25 11:19:55;;;;;;;;;;;;;;;17.58;50.14;98057.78;4987049;28;1069;-63
2023/11/25 11:22:21;;;;;;;;;;;;;;;17.33;50.54;98049.56;4982691;28;1132;-64
2023/11/25 11:24:52;;;;;;;;;;;;;;;16.84;51.63;98057.78;4987503;28;1108;-64
2023/11/25 11:27:18;;;;;;;;;;;;;;;17.14;51.30;98069.38;4997466;28;1101;-64
2023/11/25 11:29:48;;;;;;;;;;;;;;;17.47;50.25;98062.16;4997612;28;1972;-64
2023/11/25 11:32:13;;;;;;;;;;;;;;;16.89;51.68;98066.63;4996816;28;1018;-65
2023/11/25 11:34:39;;;;;;;;;;;;;;;17.34;50.91;98080.59;4997319;28;966;-65
2023/11/25 11:37:08;;;;;;;;;;;;;;;17.41;50.35;98076.13;4984974;28;1100;-63
2023/11/25 11:39:38;;;;;;;;;;;;;;;16.90;51.36;98086.63;4998479;28;1417;-59
2023/11/25 11:42:29;;;;;;;;;;;;;;;16.65;52.08;98103.03;4985435;28;1180;-60
2023/11/25 11:44:55;;;;;;;;;;;;;;;17.67;50.17;98080.44;4983324;28;1125;-61
2023/11/25 11:47:20;;;;;;;;;;;;;;;17.14;51.02;98087.78;4992076;28;1133;-63
2023/11/25 11:49:46;;;;;;;;;;;;;;;16.73;51.86;98080.19;4986542;28;1970;-62
2023/11/25 11:52:12;;;;;;;;;;;;;;;17.12;51.46;98103.81;4980782;28;974;-62
2023/11/25 11:54:37;;;;;;;;;;;;;;;17.62;49.80;98108.16;4998305;28;1100;-64
2023/11/25 11:57:03;;;;;;;;;;;;;;;16.94;51.57;98104.03;4993983;28;1437;-63
2023/11/25 11:59:47;;;;;;;;;;;;;;;16.66;52.11;98101.91;4989411;28;1000;-61
2023/11/25 12:02:14;;;;;;;;;;;;;;;17.69;49.89;98086.38;4996097;28;1061;-64
2023/11/25 12:04:40;;;;;;;;;;;;;;;16.98;51.63;98087.69;4987327;28;1176;-64
2023/11/25 12:07:06;;;;;;;;;;;;;;;16.75;52.06;98080.63;4990107;28;1101;-63
2023/11/25 12:09:31;;;;;;;;;;;;;;;17.85;49.34;98052.66;4978886;28;1906;-61
2023/11/25 12:12:01;;;;;;;;;;;;;;;17.05;51.43;98050.25;4983062;28;1029;-60
2023/11/25 12:14:26;;;;;;;;;;;;;;;16.77;51.90;98052.84;4997698;28;1138;-62
2023/11/25 12:16:52;;;;;;;;;;;;;;;16.74;52.27;98051.59;4986733;28;1052;-61
2023/11/25 12:19:17;;;;;;;;;;;;;;;17.79;49.48;98052.13;4998045;28;1036;-61
2023/11/25 12:21:43;;;;;;;;;;;;;;;17.08;51.27;98057.84;4988308;28;1076;-60
2023/11/25 12:24:11;;;;;;;;;;;;;;;17.22;51.23;98084.13;4985699;28;1043;-58
2023/11/25 12:26:37;;;;;;;;;;;;;;;17.53;50.19;98088.22;4984117;28;1172;-59
2023/11/25 12:29:03;;;;;;;;;;;;;;;16.88;51.56;98086.16;4997872;28;1983;-61
2023/11/25 12:31:29;;;;;;;;;;;;;;;16.68;52.16;98091.38;4978668;28;1107;-60
2023/11/25 12:33:57;;;;;;;;;;;;;;;17.87;49.57;98086.13;4978151;28;1014;-58
2023/11/25 12:36:23;;;;;;;;;;;;;;;17.18;50.87;98096.94;4983447;28;1136;-62
2023/11/25 12:38:48;;;;;;;;;;;;;;;16.81;52.00;98103.16;4985145;28;1036;-57
2023/11/25 12:41:15;;;;;;;;;;;;;;;16.85;52.15;98120.56;4983311;28;1203;-62
2023/11/25 12:43:59;;;;;;;;;;;;;;;17.77;49.60;98126.69;4996238;28;1005;-62
2023/11/25 12:46:24;;;;;;;;;;;;;;;16.92;51.81;98137.31;4993703;28;887;-62
2023/11/25 12:48:50;;;;;;;;;;;;;;;16.67;52.14;98128.19;4995724;28;1976;-59
2023/11/25 12:51:16;;;;;;;;;;;;;;;17.75;49.92;98126.25;4972239;28;1173;-60
2023/11/25 12:53:51;;;;;;;;;;;;;;;17.14;51.24;98131.72;4986767;28;1298;-61